sensor_id;sensor_type;location;lat;lon;timestamp;pressure;altitude;pressure_sealevel;temperature;humidity
7309;BME280;3695;53.330;9.876;2023-04-23T00:01:27;101269.94;;;15.26;100.00
7309;BME280;3695;53.330;9.876;2023-04-23T00:03:55;101293.09;;;15.35;100.00
7309;BME280;3695;53.330;9.876;2023-04-23T00:06:24;101289.66;;;15.28;100.00
7309;BME280;3695;53.330;9.876;2023-04-23T00:08:52;101302.00;;;15.19;100.00
7309;BME280;3695;53.330;9.876;2023-04-23T00:11:20;101285.09;;;14.98;100.00
7309;BME280;3695;53.330;9.876;2023-04-23T00:13:48;101310.06;;;15.14;100.00
7309;BME280;3695;53.330;9.876;2023-04-23T00:16:15;101303.75;;;15.13;100.00
7309;BME280;3695;53.330;9.876;2023-04-23T00:18:41;101333.78;;;15.13;100.00
7309;BME280;3695;53.330;9.876;2023-04-23T00:21:08;101349.19;;;14.96;100.00
7309;BME280;3695;53.330;9.876;2023-04-23T00:23:37;101358.31;;;14.90;100.00
7309;BME280;3695;53.330;9.876;2023-04-23T00:26:03;101381.72;;;14.97;100.00
7309;BME280;3695;53.330;9.876;2023-04-23T00:28:30;101486.81;;;14.88;100.00
7309;BME280;3695;53.330;9.876;2023-04-23T00:30:57;101583.25;;;15.00;100.00
7309;BME280;3695;53.330;9.876;2023-04-23T00:33:23;101898.31;;;14.93;100.00
7309;BME280;3695;53.330;9.876;2023-04-23T00:35:50;102268.34;;;14.89;100.00
7309;BME280;3695;53.330;9.876;2023-04-23T00:38:16;102431.94;;;14.90;100.00
7309;BME280;3695;53.330;9.876;2023-04-23T00:40:46;102165.00;;;14.92;100.00
7309;BME280;3695;53.330;9.876;2023-04-23T00:43:13;101948.28;;;14.93;100.00
7309;BME280;3695;53.330;9.876;2023-04-23T00:45:39;101767.72;;;14.90;100.00
7309;BME280;3695;53.330;9.876;2023-04-23T00:48:06;101655.59;;;14.91;100.00
7309;BME280;3695;53.330;9.876;2023-04-23T00:50:33;101551.81;;;14.79;100.00
7309;BME280;3695;53.330;9.876;2023-04-23T00:53:00;101539.28;;;14.90;100.00
7309;BME280;3695;53.330;9.876;2023-04-23T00:55:26;101486.06;;;14.81;100.00
7309;BME280;3695;53.330;9.876;2023-04-23T00:57:54;101437.50;;;14.71;100.00
7309;BME280;3695;53.330;9.876;2023-04-23T01:00:21;101497.22;;;14.61;100.00
7309;BME280;3695;53.330;9.876;2023-04-23T01:02:48;101477.75;;;14.76;100.00
7309;BME280;3695;53.330;9.876;2023-04-23T01:05:17;101479.69;;;14.87;100.00
7309;BME280;3695;53.330;9.876;2023-04-23T01:07:45;101474.09;;;14.82;100.00
7309;BME280;3695;53.330;9.876;2023-04-23T01:10:12;101452.25;;;14.82;100.00
7309;BME280;3695;53.330;9.876;2023-04-23T01:12:38;101460.13;;;14.90;100.00
7309;BME280;3695;53.330;9.876;2023-04-23T01:15:07;101442.88;;;14.78;100.00
7309;BME280;3695;53.330;9.876;2023-04-23T01:17:34;101401.50;;;14.63;100.00
7309;BME280;3695;53.330;9.876;2023-04-23T01:20:01;101453.41;;;14.74;100.00
7309;BME280;3695;53.330;9.876;2023-04-23T01:22:32;101390.78;;;14.79;100.00
7309;BME280;3695;53.330;9.876;2023-04-23T01:24:58;101397.66;;;14.70;100.00
7309;BME280;3695;53.330;9.876;2023-04-23T01:27:25;101431.72;;;14.79;100.00
7309;BME280;3695;53.330;9.876;2023-04-23T01:29:51;101407.63;;;14.76;100.00
7309;BME280;3695;53.330;9.876;2023-04-23T01:32:18;101399.22;;;14.78;100.00
7309;BME280;3695;53.330;9.876;2023-04-23T01:34:46;101407.88;;;14.75;100.00
7309;BME280;3695;53.330;9.876;2023-04-23T01:37:13;101391.97;;;14.72;100.00
7309;BME280;3695;53.330;9.876;2023-04-23T01:39:42;101388.31;;;14.60;100.00
7309;BME280;3695;53.330;9.876;2023-04-23T01:42:08;101356.94;;;14.69;100.00
7309;BME280;3695;53.330;9.876;2023-04-23T01:44:35;101406.50;;;14.66;100.00
7309;BME280;3695;53.330;9.876;2023-04-23T01:47:02;101375.50;;;14.60;100.00
7309;BME280;3695;53.330;9.876;2023-04-23T01:49:29;101388.09;;;14.61;100.00
7309;BME280;3695;53.330;9.876;2023-04-23T01:51:56;101375.03;;;14.63;100.00
7309;BME280;3695;53.330;9.876;2023-04-23T01:54:22;101359.50;;;14.64;100.00
7309;BME280;3695;53.330;9.876;2023-04-23T01:56:50;101390.34;;;14.64;100.00
7309;BME280;3695;53.330;9.876;2023-04-23T01:59:19;101359.97;;;14.61;100.00
7309;BME280;3695;53.330;9.876;2023-04-23T02:01:46;101401.66;;;14.49;100.00
7309;BME280;3695;53.330;9.876;2023-04-23T02:04:14;101451.34;;;14.33;100.00
7309;BME280;3695;53.330;9.876;2023-04-23T02:06:43;101342.91;;;13.80;100.00
7309;BME280;3695;53.330;9.876;2023-04-23T02:09:11;101441.47;;;13.71;100.00
7309;BME280;3695;53.330;9.876;2023-04-23T02:11:38;101413.09;;;12.97;100.00
7309;BME280;3695;53.330;9.876;2023-04-23T02:14:06;101415.53;;;13.05;100.00
7309;BME280;3695;53.330;9.876;2023-04-23T02:16:32;101430.59;;;12.70;100.00
7309;BME280;3695;53.330;9.876;2023-04-23T02:18:59;101429.72;;;12.76;100.00
7309;BME280;3695;53.330;9.876;2023-04-23T02:21:26;101415.84;;;12.46;100.00
7309;BME280;3695;53.330;9.876;2023-04-23T02:23:52;101416.13;;;12.31;100.00
7309;BME280;3695;53.330;9.876;2023-04-23T02:26:19;101461.41;;;12.50;100.00
7309;BME280;3695;53.330;9.876;2023-04-23T02:28:46;101453.13;;;12.32;100.00
7309;BME280;3695;53.330;9.876;2023-04-23T02:31:14;101472.81;;;12.08;100.00
7309;BME280;3695;53.330;9.876;2023-04-23T02:33:42;101561.22;;;12.17;100.00
7309;BME280;3695;53.330;9.876;2023-04-23T02:36:08;101547.41;;;12.25;100.00
7309;BME280;3695;53.330;9.876;2023-04-23T02:38:36;101510.84;;;12.08;100.00
7309;BME280;3695;53.330;9.876;2023-04-23T02:41:05;101531.31;;;12.17;100.00
7309;BME280;3695;53.330;9.876;2023-04-23T02:43:32;101486.19;;;12.03;100.00
7309;BME280;3695;53.330;9.876;2023-04-23T02:45:58;101519.84;;;12.02;100.00
7309;BME280;3695;53.330;9.876;2023-04-23T02:48:27;101464.84;;;11.66;100.00
7309;BME280;3695;53.330;9.876;2023-04-23T02:50:53;101542.97;;;11.64;100.00
7309;BME280;3695;53.330;9.876;2023-04-23T02:53:20;101531.91;;;11.66;100.00
7309;BME280;3695;53.330;9.876;2023-04-23T02:55:46;101511.66;;;11.68;100.00
7309;BME280;3695;53.330;9.876;2023-04-23T02:58:13;101506.22;;;11.68;100.00
7309;BME280;3695;53.330;9.876;2023-04-23T03:00:40;101475.72;;;11.47;100.00
7309;BME280;3695;53.330;9.876;2023-04-23T03:03:06;101419.75;;;11.46;100.00
7309;BME280;3695;53.330;9.876;2023-04-23T03:05:34;101467.16;;;11.50;100.00
7309;BME280;3695;53.330;9.876;2023-04-23T03:08:00;101511.63;;;11.62;100.00
7309;BME280;3695;53.330;9.876;2023-04-23T03:10:27;101487.00;;;11.50;100.00
7309;BME280;3695;53.330;9.876;2023-04-23T03:12:53;101456.03;;;11.18;100.00
7309;BME280;3695;53.330;9.876;2023-04-23T03:15:20;101459.22;;;11.55;100.00
7309;BME280;3695;53.330;9.876;2023-04-23T03:17:47;101437.03;;;11.25;100.00
7309;BME280;3695;53.330;9.876;2023-04-23T03:20:15;101527.03;;;11.35;100.00
7309;BME280;3695;53.330;9.876;2023-04-23T03:22:42;101498.25;;;11.41;100.00
7309;BME280;3695;53.330;9.876;2023-04-23T03:25:10;101446.47;;;11.35;100.00
7309;BME280;3695;53.330;9.876;2023-04-23T03:27:37;101433.09;;;11.34;100.00
7309;BME280;3695;53.330;9.876;2023-04-23T03:30:05;101435.00;;;11.47;100.00
7309;BME280;3695;53.330;9.876;2023-04-23T03:32:32;101504.31;;;11.43;100.00
7309;BME280;3695;53.330;9.876;2023-04-23T03:34:58;101492.56;;;11.22;100.00
7309;BME280;3695;53.330;9.876;2023-04-23T03:37:25;101490.06;;;11.34;100.00
7309;BME280;3695;53.330;9.876;2023-04-23T03:39:53;101539.50;;;11.16;100.00
7309;BME280;3695;53.330;9.876;2023-04-23T03:42:20;101434.31;;;11.18;100.00
7309;BME280;3695;53.330;9.876;2023-04-23T03:44:46;101474.81;;;11.26;100.00
7309;BME280;3695;53.330;9.876;2023-04-23T03:47:13;101513.81;;;11.12;100.00
7309;BME280;3695;53.330;9.876;2023-04-23T03:49:39;101484.81;;;11.13;100.00
7309;BME280;3695;53.330;9.876;2023-04-23T03:52:06;101508.03;;;11.28;100.00
7309;BME280;3695;53.330;9.876;2023-04-23T03:54:32;101528.91;;;11.28;100.00
7309;BME280;3695;53.330;9.876;2023-04-23T03:57:00;101582.91;;;11.16;100.00
7309;BME280;3695;53.330;9.876;2023-04-23T03:59:26;101573.78;;;11.30;100.00
7309;BME280;3695;53.330;9.876;2023-04-23T04:01:53;101556.19;;;11.13;100.00
7309;BME280;3695;53.330;9.876;2023-04-23T04:04:19;101470.97;;;10.88;100.00
7309;BME280;3695;53.330;9.876;2023-04-23T04:06:45;101607.91;;;11.05;100.00
7309;BME280;3695;53.330;9.876;2023-04-23T04:09:12;101627.78;;;11.12;100.00
7309;BME280;3695;53.330;9.876;2023-04-23T04:11:38;101591.34;;;10.52;100.00
7309;BME280;3695;53.330;9.876;2023-04-23T04:14:06;101583.69;;;10.62;100.00
7309;BME280;3695;53.330;9.876;2023-04-23T04:16:33;101628.19;;;10.75;100.00
7309;BME280;3695;53.330;9.876;2023-04-23T04:18:59;101696.84;;;10.82;100.00
7309;BME280;3695;53.330;9.876;2023-04-23T04:21:26;101653.22;;;10.77;100.00
7309;BME280;3695;53.330;9.876;2023-04-23T04:23:54;101643.28;;;10.56;100.00
7309;BME280;3695;53.330;9.876;2023-04-23T04:26:21;101661.34;;;10.77;100.00
7309;BME280;3695;53.330;9.876;2023-04-23T04:28:47;101667.31;;;10.65;100.00
7309;BME280;3695;53.330;9.876;2023-04-23T04:31:15;101594.97;;;10.66;100.00
7309;BME280;3695;53.330;9.876;2023-04-23T04:33:42;101585.91;;;10.52;100.00
7309;BME280;3695;53.330;9.876;2023-04-23T04:36:10;101593.66;;;10.55;100.00
7309;BME280;3695;53.330;9.876;2023-04-23T04:38:37;101599.13;;;10.62;100.00
7309;BME280;3695;53.330;9.876;2023-04-23T04:41:04;101526.59;;;10.36;100.00
7309;BME280;3695;53.330;9.876;2023-04-23T04:43:32;101662.69;;;10.59;100.00
7309;BME280;3695;53.330;9.876;2023-04-23T04:45:58;101510.03;;;10.52;100.00
7309;BME280;3695;53.330;9.876;2023-04-23T04:48:26;101535.81;;;10.42;100.00
7309;BME280;3695;53.330;9.876;2023-04-23T04:50:53;101676.09;;;10.67;100.00
7309;BME280;3695;53.330;9.876;2023-04-23T04:53:19;101654.09;;;10.84;100.00
7309;BME280;3695;53.330;9.876;2023-04-23T04:55:46;101531.66;;;10.46;100.00
7309;BME280;3695;53.330;9.876;2023-04-23T04:58:13;101519.19;;;10.51;100.00
7309;BME280;3695;53.330;9.876;2023-04-23T05:00:39;101469.03;;;10.34;100.00
7309;BME280;3695;53.330;9.876;2023-04-23T05:03:06;101519.19;;;10.51;100.00
7309;BME280;3695;53.330;9.876;2023-04-23T05:05:33;101548.25;;;10.64;100.00
7309;BME280;3695;53.330;9.876;2023-04-23T05:08:00;101598.94;;;10.70;100.00
7309;BME280;3695;53.330;9.876;2023-04-23T05:10:27;101563.97;;;10.82;100.00
7309;BME280;3695;53.330;9.876;2023-04-23T05:12:55;101284.88;;;10.67;100.00
7309;BME280;3695;53.330;9.876;2023-04-23T05:15:22;101268.19;;;10.50;100.00
7309;BME280;3695;53.330;9.876;2023-04-23T05:17:48;101403.28;;;10.53;100.00
7309;BME280;3695;53.330;9.876;2023-04-23T05:20:17;101419.53;;;10.53;100.00
7309;BME280;3695;53.330;9.876;2023-04-23T05:22:45;101590.63;;;10.71;100.00
7309;BME280;3695;53.330;9.876;2023-04-23T05:25:12;101404.91;;;10.41;100.00
7309;BME280;3695;53.330;9.876;2023-04-23T05:27:39;101373.19;;;10.35;100.00
7309;BME280;3695;53.330;9.876;2023-04-23T05:30:07;101672.91;;;10.57;100.00
7309;BME280;3695;53.330;9.876;2023-04-23T05:32:34;101195.97;;;10.16;100.00
7309;BME280;3695;53.330;9.876;2023-04-23T05:35:01;101528.03;;;10.32;100.00
7309;BME280;3695;53.330;9.876;2023-04-23T05:37:28;101627.59;;;10.51;100.00
7309;BME280;3695;53.330;9.876;2023-04-23T05:39:56;101392.88;;;10.63;100.00
7309;BME280;3695;53.330;9.876;2023-04-23T05:42:23;101649.56;;;10.91;100.00
7309;BME280;3695;53.330;9.876;2023-04-23T05:44:50;101605.91;;;10.86;100.00
7309;BME280;3695;53.330;9.876;2023-04-23T05:47:16;101263.19;;;10.54;100.00
7309;BME280;3695;53.330;9.876;2023-04-23T05:49:43;101374.91;;;10.49;100.00
7309;BME280;3695;53.330;9.876;2023-04-23T05:52:10;101691.94;;;10.92;100.00
7309;BME280;3695;53.330;9.876;2023-04-23T05:54:37;101264.66;;;10.63;100.00
7309;BME280;3695;53.330;9.876;2023-04-23T05:57:05;101590.41;;;10.73;100.00
7309;BME280;3695;53.330;9.876;2023-04-23T05:59:32;101558.53;;;10.82;100.00
7309;BME280;3695;53.330;9.876;2023-04-23T06:01:59;101594.84;;;10.81;100.00
7309;BME280;3695;53.330;9.876;2023-04-23T06:04:26;101679.44;;;10.97;100.00
7309;BME280;3695;53.330;9.876;2023-04-23T06:06:52;101660.09;;;11.07;100.00
7309;BME280;3695;53.330;9.876;2023-04-23T06:09:18;101281.78;;;10.96;100.00
7309;BME280;3695;53.330;9.876;2023-04-23T06:11:45;101321.13;;;10.53;100.00
7309;BME280;3695;53.330;9.876;2023-04-23T06:14:15;101441.88;;;10.55;100.00
7309;BME280;3695;53.330;9.876;2023-04-23T06:16:42;101492.13;;;10.58;100.00
7309;BME280;3695;53.330;9.876;2023-04-23T06:19:08;101554.31;;;10.66;100.00
7309;BME280;3695;53.330;9.876;2023-04-23T06:21:35;101407.72;;;10.67;100.00
7309;BME280;3695;53.330;9.876;2023-04-23T06:24:02;101453.50;;;10.97;100.00
7309;BME280;3695;53.330;9.876;2023-04-23T06:26:30;101361.28;;;10.97;100.00
7309;BME280;3695;53.330;9.876;2023-04-23T06:28:56;101387.91;;;10.80;100.00
7309;BME280;3695;53.330;9.876;2023-04-23T06:31:24;101372.91;;;10.78;100.00
7309;BME280;3695;53.330;9.876;2023-04-23T06:33:51;101222.31;;;10.55;100.00
7309;BME280;3695;53.330;9.876;2023-04-23T06:36:17;101611.88;;;10.68;100.00
7309;BME280;3695;53.330;9.876;2023-04-23T06:38:43;101570.22;;;10.82;100.00
7309;BME280;3695;53.330;9.876;2023-04-23T06:41:10;101376.28;;;10.99;100.00
7309;BME280;3695;53.330;9.876;2023-04-23T06:43:37;101422.84;;;11.10;100.00
7309;BME280;3695;53.330;9.876;2023-04-23T06:46:04;101323.88;;;10.79;100.00
7309;BME280;3695;53.330;9.876;2023-04-23T06:48:31;101341.81;;;10.73;100.00
7309;BME280;3695;53.330;9.876;2023-04-23T06:50:58;101485.56;;;10.87;100.00
7309;BME280;3695;53.330;9.876;2023-04-23T06:53:24;101269.03;;;10.70;100.00
7309;BME280;3695;53.330;9.876;2023-04-23T06:55:51;101248.81;;;10.80;100.00
7309;BME280;3695;53.330;9.876;2023-04-23T06:58:17;101408.75;;;10.66;100.00
7309;BME280;3695;53.330;9.876;2023-04-23T07:00:44;101484.16;;;10.97;100.00
7309;BME280;3695;53.330;9.876;2023-04-23T07:03:10;101619.69;;;11.25;100.00
7309;BME280;3695;53.330;9.876;2023-04-23T07:05:38;101355.44;;;11.33;100.00
7309;BME280;3695;53.330;9.876;2023-04-23T07:10:32;101137.63;;;10.99;100.00
7309;BME280;3695;53.330;9.876;2023-04-23T07:12:59;101674.19;;;11.30;100.00
7309;BME280;3695;53.330;9.876;2023-04-23T07:15:25;101351.06;;;11.45;100.00
7309;BME280;3695;53.330;9.876;2023-04-23T07:17:52;101313.69;;;11.27;100.00
7309;BME280;3695;53.330;9.876;2023-04-23T07:20:19;101285.53;;;11.22;100.00
7309;BME280;3695;53.330;9.876;2023-04-23T07:22:46;101382.16;;;11.16;100.00
7309;BME280;3695;53.330;9.876;2023-04-23T07:25:13;101027.84;;;11.09;100.00
7309;BME280;3695;53.330;9.876;2023-04-23T07:27:39;101398.03;;;11.52;100.00
7309;BME280;3695;53.330;9.876;2023-04-23T07:30:07;101261.03;;;11.55;100.00
7309;BME280;3695;53.330;9.876;2023-04-23T07:32:33;101689.53;;;11.92;100.00
7309;BME280;3695;53.330;9.876;2023-04-23T07:35:00;101288.56;;;11.85;100.00
7309;BME280;3695;53.330;9.876;2023-04-23T07:37:26;101297.38;;;11.60;100.00
7309;BME280;3695;53.330;9.876;2023-04-23T07:39:54;101659.66;;;12.06;100.00
7309;BME280;3695;53.330;9.876;2023-04-23T07:42:21;101335.38;;;11.87;100.00
7309;BME280;3695;53.330;9.876;2023-04-23T07:44:47;101028.00;;;11.58;100.00
7309;BME280;3695;53.330;9.876;2023-04-23T07:47:14;100754.44;;;11.17;100.00
7309;BME280;3695;53.330;9.876;2023-04-23T07:49:40;101661.72;;;11.84;100.00
7309;BME280;3695;53.330;9.876;2023-04-23T07:52:07;101446.47;;;12.08;100.00
7309;BME280;3695;53.330;9.876;2023-04-23T07:54:33;101332.72;;;12.18;100.00
7309;BME280;3695;53.330;9.876;2023-04-23T07:57:01;101397.09;;;12.31;100.00
7309;BME280;3695;53.330;9.876;2023-04-23T07:59:28;101164.34;;;12.05;100.00
7309;BME280;3695;53.330;9.876;2023-04-23T08:01:54;101153.09;;;12.02;100.00
7309;BME280;3695;53.330;9.876;2023-04-23T08:04:21;101216.88;;;12.24;100.00
7309;BME280;3695;53.330;9.876;2023-04-23T08:06:48;101174.84;;;12.26;100.00
7309;BME280;3695;53.330;9.876;2023-04-23T08:09:14;101317.88;;;12.21;100.00
7309;BME280;3695;53.330;9.876;2023-04-23T08:11:41;101375.84;;;12.59;100.00
7309;BME280;3695;53.330;9.876;2023-04-23T08:14:08;101357.19;;;12.63;100.00
7309;BME280;3695;53.330;9.876;2023-04-23T08:16:35;100707.53;;;12.20;100.00
7309;BME280;3695;53.330;9.876;2023-04-23T08:19:02;101400.66;;;12.70;100.00
7309;BME280;3695;53.330;9.876;2023-04-23T08:21:29;101231.28;;;12.63;100.00
7309;BME280;3695;53.330;9.876;2023-04-23T08:23:56;101404.22;;;12.70;100.00
7309;BME280;3695;53.330;9.876;2023-04-23T08:26:23;101139.50;;;12.76;100.00
7309;BME280;3695;53.330;9.876;2023-04-23T08:28:49;100752.06;;;12.37;100.00
7309;BME280;3695;53.330;9.876;2023-04-23T08:31:18;100682.81;;;12.10;100.00
7309;BME280;3695;53.330;9.876;2023-04-23T08:33:44;101294.38;;;12.71;100.00
7309;BME280;3695;53.330;9.876;2023-04-23T08:36:11;100958.31;;;12.45;100.00
7309;BME280;3695;53.330;9.876;2023-04-23T08:38:39;101296.88;;;12.73;100.00
7309;BME280;3695;53.330;9.876;2023-04-23T08:41:09;101489.91;;;12.92;100.00
7309;BME280;3695;53.330;9.876;2023-04-23T08:43:47;101184.97;;;12.94;100.00
7309;BME280;3695;53.330;9.876;2023-04-23T08:46:18;101028.56;;;12.85;100.00
7309;BME280;3695;53.330;9.876;2023-04-23T08:48:45;101146.91;;;12.94;100.00
7309;BME280;3695;53.330;9.876;2023-04-23T08:51:17;100699.38;;;12.50;100.00
7309;BME280;3695;53.330;9.876;2023-04-23T08:53:44;101054.22;;;12.71;100.00
7309;BME280;3695;53.330;9.876;2023-04-23T08:56:13;101119.16;;;13.04;100.00
7309;BME280;3695;53.330;9.876;2023-04-23T08:58:40;101104.13;;;13.01;100.00
7309;BME280;3695;53.330;9.876;2023-04-23T09:01:07;100684.97;;;12.61;100.00
7309;BME280;3695;53.330;9.876;2023-04-23T09:03:35;101293.91;;;13.06;100.00
7309;BME280;3695;53.330;9.876;2023-04-23T09:06:03;100868.38;;;13.07;100.00
7309;BME280;3695;53.330;9.876;2023-04-23T09:08:31;101256.53;;;13.44;100.00
7309;BME280;3695;53.330;9.876;2023-04-23T09:10:59;101008.25;;;13.36;100.00
7309;BME280;3695;53.330;9.876;2023-04-23T09:13:26;101217.72;;;13.31;100.00
7309;BME280;3695;53.330;9.876;2023-04-23T09:15:53;101255.84;;;13.67;100.00
7309;BME280;3695;53.330;9.876;2023-04-23T09:18:19;101083.19;;;13.68;100.00
7309;BME280;3695;53.330;9.876;2023-04-23T09:20:48;100678.03;;;13.47;100.00
7309;BME280;3695;53.330;9.876;2023-04-23T09:23:15;101158.78;;;14.03;100.00
7309;BME280;3695;53.330;9.876;2023-04-23T09:25:42;100858.41;;;14.01;100.00
7309;BME280;3695;53.330;9.876;2023-04-23T09:28:08;100641.31;;;13.49;100.00
7309;BME280;3695;53.330;9.876;2023-04-23T09:30:38;100958.41;;;13.77;100.00
7309;BME280;3695;53.330;9.876;2023-04-23T09:33:06;100684.81;;;13.84;100.00
7309;BME280;3695;53.330;9.876;2023-04-23T09:35:33;100860.19;;;13.95;100.00
7309;BME280;3695;53.330;9.876;2023-04-23T09:38:02;100991.84;;;14.19;100.00
7309;BME280;3695;53.330;9.876;2023-04-23T09:40:32;100969.06;;;14.02;100.00
7309;BME280;3695;53.330;9.876;2023-04-23T09:43:02;101120.34;;;14.34;100.00
7309;BME280;3695;53.330;9.876;2023-04-23T09:45:29;100842.38;;;14.28;100.00
7309;BME280;3695;53.330;9.876;2023-04-23T09:47:57;100740.19;;;14.59;100.00
7309;BME280;3695;53.330;9.876;2023-04-23T09:50:34;100370.63;;;14.56;100.00
7309;BME280;3695;53.330;9.876;2023-04-23T09:53:01;100511.72;;;14.66;100.00
7309;BME280;3695;53.330;9.876;2023-04-23T09:55:31;100561.84;;;14.60;100.00
7309;BME280;3695;53.330;9.876;2023-04-23T09:58:00;100909.28;;;14.70;100.00
7309;BME280;3695;53.330;9.876;2023-04-23T10:00:31;101004.72;;;14.82;100.00
7309;BME280;3695;53.330;9.876;2023-04-23T10:02:58;101038.44;;;14.29;100.00
7309;BME280;3695;53.330;9.876;2023-04-23T10:05:26;101061.34;;;14.75;100.00
7309;BME280;3695;53.330;9.876;2023-04-23T10:07:54;101093.31;;;15.15;100.00
7309;BME280;3695;53.330;9.876;2023-04-23T10:10:21;101091.41;;;15.15;100.00
7309;BME280;3695;53.330;9.876;2023-04-23T10:12:50;101101.97;;;15.11;100.00
7309;BME280;3695;53.330;9.876;2023-04-23T10:15:17;101115.88;;;14.98;100.00
7309;BME280;3695;53.330;9.876;2023-04-23T10:17:45;101125.13;;;15.21;100.00
7309;BME280;3695;53.330;9.876;2023-04-23T10:20:15;101108.84;;;15.26;100.00
7309;BME280;3695;53.330;9.876;2023-04-23T10:22:43;101108.66;;;15.44;100.00
7309;BME280;3695;53.330;9.876;2023-04-23T10:25:12;101093.34;;;14.91;100.00
7309;BME280;3695;53.330;9.876;2023-04-23T10:27:40;101106.63;;;14.99;100.00
7309;BME280;3695;53.330;9.876;2023-04-23T10:30:08;101085.44;;;15.30;100.00
7309;BME280;3695;53.330;9.876;2023-04-23T10:32:36;101062.25;;;14.92;100.00
7309;BME280;3695;53.330;9.876;2023-04-23T10:35:04;101045.66;;;14.82;100.00
7309;BME280;3695;53.330;9.876;2023-04-23T10:37:30;101083.09;;;15.22;100.00
7309;BME280;3695;53.330;9.876;2023-04-23T10:40:03;101074.75;;;15.57;100.00
7309;BME280;3695;53.330;9.876;2023-04-23T10:42:34;101061.72;;;15.47;100.00
7309;BME280;3695;53.330;9.876;2023-04-23T10:45:01;101044.75;;;15.45;100.00
7309;BME280;3695;53.330;9.876;2023-04-23T10:47:33;101064.47;;;15.47;100.00
7309;BME280;3695;53.330;9.876;2023-04-23T10:50:17;101037.06;;;15.42;100.00
7309;BME280;3695;53.330;9.876;2023-04-23T10:52:43;101076.34;;;15.81;100.00
7309;BME280;3695;53.330;9.876;2023-04-23T10:55:15;101070.59;;;16.11;100.00
7309;BME280;3695;53.330;9.876;2023-04-23T10:57:59;101041.75;;;16.03;100.00
7309;BME280;3695;53.330;9.876;2023-04-23T11:00:27;101068.44;;;16.30;100.00
7309;BME280;3695;53.330;9.876;2023-04-23T11:02:54;101056.66;;;16.46;100.00
7309;BME280;3695;53.330;9.876;2023-04-23T11:05:21;101037.81;;;16.50;100.00
7309;BME280;3695;53.330;9.876;2023-04-23T11:08:01;101018.38;;;15.96;100.00
7309;BME280;3695;53.330;9.876;2023-04-23T11:10:30;100998.84;;;16.21;100.00
7309;BME280;3695;53.330;9.876;2023-04-23T11:13:21;101042.22;;;16.51;100.00
7309;BME280;3695;53.330;9.876;2023-04-23T11:15:48;100980.69;;;16.15;100.00
7309;BME280;3695;53.330;9.876;2023-04-23T11:18:59;101027.16;;;16.31;100.00
7309;BME280;3695;53.330;9.876;2023-04-23T11:21:55;101076.13;;;16.83;100.00
7309;BME280;3695;53.330;9.876;2023-04-23T11:24:22;101017.78;;;16.83;100.00
7309;BME280;3695;53.330;9.876;2023-04-23T11:26:51;101032.00;;;17.02;100.00
7309;BME280;3695;53.330;9.876;2023-04-23T11:29:21;101012.13;;;16.89;100.00
7309;BME280;3695;53.330;9.876;2023-04-23T11:31:48;100995.00;;;16.77;100.00
7309;BME280;3695;53.330;9.876;2023-04-23T11:34:15;100984.88;;;16.99;100.00
7309;BME280;3695;53.330;9.876;2023-04-23T11:36:42;100966.94;;;17.09;100.00
7309;BME280;3695;53.330;9.876;2023-04-23T11:39:08;100978.50;;;17.16;100.00
7309;BME280;3695;53.330;9.876;2023-04-23T11:41:36;100990.34;;;16.99;100.00
7309;BME280;3695;53.330;9.876;2023-04-23T11:44:03;101024.81;;;17.44;100.00
7309;BME280;3695;53.330;9.876;2023-04-23T11:46:32;100974.75;;;17.00;100.00
7309;BME280;3695;53.330;9.876;2023-04-23T11:48:58;101001.91;;;17.50;100.00
7309;BME280;3695;53.330;9.876;2023-04-23T11:51:25;100966.97;;;17.14;100.00
7309;BME280;3695;53.330;9.876;2023-04-23T11:53:52;100966.28;;;17.50;100.00
7309;BME280;3695;53.330;9.876;2023-04-23T11:56:18;100968.50;;;17.53;100.00
7309;BME280;3695;53.330;9.876;2023-04-23T11:58:46;100961.28;;;18.06;100.00
7309;BME280;3695;53.330;9.876;2023-04-23T12:01:13;100940.69;;;18.04;100.00
7309;BME280;3695;53.330;9.876;2023-04-23T12:03:47;100965.38;;;18.04;100.00
7309;BME280;3695;53.330;9.876;2023-04-23T12:06:15;100942.75;;;18.29;100.00
7309;BME280;3695;53.330;9.876;2023-04-23T12:08:41;100942.25;;;17.94;100.00
7309;BME280;3695;53.330;9.876;2023-04-23T12:11:11;100944.28;;;18.09;100.00
7309;BME280;3695;53.330;9.876;2023-04-23T12:13:39;100933.91;;;17.79;100.00
7309;BME280;3695;53.330;9.876;2023-04-23T12:16:07;100940.53;;;18.20;100.00
7309;BME280;3695;53.330;9.876;2023-04-23T12:18:34;100937.09;;;17.98;100.00
7309;BME280;3695;53.330;9.876;2023-04-23T12:21:09;100937.22;;;18.18;100.00
7309;BME280;3695;53.330;9.876;2023-04-23T12:23:36;100923.34;;;18.40;100.00
7309;BME280;3695;53.330;9.876;2023-04-23T12:26:03;100936.56;;;18.48;100.00
7309;BME280;3695;53.330;9.876;2023-04-23T12:28:30;100933.31;;;18.56;100.00
7309;BME280;3695;53.330;9.876;2023-04-23T12:30:58;100926.78;;;18.63;100.00
7309;BME280;3695;53.330;9.876;2023-04-23T12:33:27;100928.47;;;18.27;100.00
7309;BME280;3695;53.330;9.876;2023-04-23T12:35:54;100925.88;;;18.52;100.00
7309;BME280;3695;53.330;9.876;2023-04-23T12:38:24;100918.47;;;18.47;100.00
7309;BME280;3695;53.330;9.876;2023-04-23T12:40:51;100918.34;;;18.84;100.00
7309;BME280;3695;53.330;9.876;2023-04-23T12:43:17;100929.44;;;19.25;100.00
7309;BME280;3695;53.330;9.876;2023-04-23T12:45:43;100926.56;;;18.84;100.00
7309;BME280;3695;53.330;9.876;2023-04-23T12:48:10;100925.03;;;19.14;100.00
7309;BME280;3695;53.330;9.876;2023-04-23T12:50:37;100917.34;;;19.31;100.00
7309;BME280;3695;53.330;9.876;2023-04-23T12:53:03;100917.94;;;19.79;100.00
7309;BME280;3695;53.330;9.876;2023-04-23T12:55:31;100906.66;;;19.86;100.00
7309;BME280;3695;53.330;9.876;2023-04-23T12:57:58;100918.47;;;20.11;100.00
7309;BME280;3695;53.330;9.876;2023-04-23T13:00:25;100909.13;;;19.97;100.00
7309;BME280;3695;53.330;9.876;2023-04-23T13:02:51;100898.16;;;19.67;100.00
7309;BME280;3695;53.330;9.876;2023-04-23T13:05:18;100893.06;;;18.82;100.00